createdAt,value
2023-06-17T00:00:15.828Z,60.9
2023-06-17T00:05:15.820Z,60.8
2023-06-17T00:10:19.294Z,60.7
2023-06-17T00:15:18.777Z,60.6
2023-06-17T00:20:19.194Z,61.0
2023-06-17T00:25:18.765Z,60.9
2023-06-17T00:30:15.825Z,60.7
2023-06-17T00:35:18.771Z,60.6
2023-06-17T00:40:19.079Z,60.4
2023-06-17T00:45:18.739Z,59.8
2023-06-17T00:50:15.837Z,59.6
2023-06-17T00:55:18.755Z,59.5
2023-06-17T01:00:15.825Z,59.3
2023-06-17T01:05:18.897Z,59.7
2023-06-17T01:10:19.097Z,59.6
2023-06-17T01:15:15.795Z,60.0
2023-06-17T01:20:19.003Z,59.8
2023-06-17T01:25:18.807Z,60.1
2023-06-17T01:30:19.029Z,60.0
2023-06-17T01:35:18.868Z,60.0
2023-06-17T01:40:15.883Z,59.9
2023-06-17T01:45:18.839Z,59.8
2023-06-17T01:50:19.092Z,59.7
2023-06-17T01:55:15.789Z,59.6
2023-06-17T02:00:19.317Z,59.4
2023-06-17T02:05:15.885Z,59.2
2023-06-17T02:10:19.199Z,59.0
2023-06-17T02:15:15.881Z,59.4
2023-06-17T02:20:19.090Z,59.3
2023-06-17T02:25:18.887Z,59.2
2023-06-17T02:30:15.827Z,59.1
2023-06-17T02:35:18.927Z,59.0
2023-06-17T02:40:19.296Z,58.9
2023-06-17T02:45:18.810Z,58.8
2023-06-17T02:50:19.041Z,58.6
2023-06-17T02:55:15.899Z,58.5
2023-06-17T03:00:19.141Z,58.5
2023-06-17T03:05:18.887Z,58.4
2023-06-17T03:10:19.192Z,58.8
2023-06-17T03:15:15.896Z,58.2
2023-06-17T03:20:19.111Z,58.2
2023-06-17T03:25:18.857Z,58.1
2023-06-17T03:30:15.890Z,58.0
2023-06-17T03:35:15.839Z,58.4
2023-06-17T03:40:19.163Z,58.4
2023-06-17T03:45:18.879Z,58.4
2023-06-17T03:50:19.239Z,58.4
2023-06-17T03:55:18.885Z,58.3
2023-06-17T04:00:20.602Z,58.6
2023-06-17T04:05:17.112Z,58.6
2023-06-17T04:10:17.111Z,58.5
2023-06-17T04:15:20.179Z,58.8
2023-06-17T04:20:17.115Z,58.7
2023-06-17T04:25:17.160Z,58.6
2023-06-17T04:30:20.435Z,58.5
2023-06-17T04:35:20.214Z,58.8
2023-06-17T04:40:20.357Z,58.7
2023-06-17T04:45:17.118Z,58.6
2023-06-17T04:50:17.186Z,58.6
2023-06-17T04:55:16.997Z,58.4
2023-06-17T05:00:22.516Z,58.4
2023-06-17T05:05:20.159Z,58.2
2023-06-17T05:10:17.111Z,58.2
2023-06-17T05:15:17.096Z,58.6
2023-06-17T05:20:20.530Z,58.5
2023-06-17T05:25:20.111Z,58.4
2023-06-17T05:30:20.353Z,58.3
2023-06-17T05:35:17.155Z,58.2
2023-06-17T05:40:20.399Z,58.1
2023-06-17T05:45:20.131Z,57.9
2023-06-17T05:50:20.338Z,57.8
2023-06-17T05:55:20.127Z,57.6
2023-06-17T06:00:17.145Z,57.5
2023-06-17T06:05:17.223Z,57.4
2023-06-17T06:10:20.440Z,57.3
2023-06-17T06:15:20.152Z,57.1
2023-06-17T06:20:20.351Z,57.0
2023-06-17T06:25:17.181Z,57.3
2023-06-17T06:30:17.141Z,57.2
2023-06-17T06:35:17.190Z,57.2
2023-06-17T06:40:20.538Z,57.1
2023-06-17T06:45:20.194Z,57.5
2023-06-17T06:50:20.284Z,57.4
2023-06-17T06:55:20.143Z,57.8
2023-06-17T07:00:17.278Z,57.8
2023-06-17T07:05:17.195Z,58.2
2023-06-17T07:10:20.684Z,58.6
2023-06-17T07:15:20.160Z,58.6
2023-06-17T07:20:20.418Z,58.5
2023-06-17T07:25:20.102Z,58.6
2023-06-17T07:30:20.434Z,58.9
2023-06-17T07:35:17.197Z,59.4
2023-06-17T07:40:17.209Z,59.4
2023-06-17T07:45:20.228Z,60.0
2023-06-17T07:50:20.435Z,59.9
2023-06-17T07:55:20.182Z,59.8
2023-06-17T08:00:20.508Z,60.1
2023-06-17T08:05:17.245Z,60.4
2023-06-17T08:10:20.410Z,60.3
2023-06-17T08:15:17.218Z,60.2
2023-06-17T08:20:17.212Z,60.1
2023-06-17T08:25:17.239Z,59.9
2023-06-17T08:30:17.436Z,59.8
2023-06-17T08:35:17.201Z,59.8
2023-06-17T08:40:17.365Z,59.7
2023-06-17T08:45:17.013Z,59.6
2023-06-17T08:50:17.117Z,59.6
2023-06-17T08:55:17.232Z,59.5
2023-06-17T09:00:17.314Z,59.4
2023-06-17T09:05:17.409Z,59.4
2023-06-17T09:10:17.270Z,59.3
2023-06-17T09:15:17.226Z,59.3
2023-06-17T09:20:20.509Z,58.9
2023-06-17T09:25:17.268Z,58.8
2023-06-17T09:30:17.238Z,58.8
2023-06-17T09:35:17.262Z,58.7
2023-06-17T09:40:17.392Z,58.7
2023-06-17T09:45:17.258Z,58.7
2023-06-17T09:50:17.310Z,58.4
2023-06-17T09:55:20.252Z,58.0
2023-06-17T10:00:17.252Z,58.0
2023-06-17T10:05:17.269Z,58.0
2023-06-17T10:10:17.218Z,57.9
2023-06-17T10:15:17.277Z,57.9
2023-06-17T10:20:20.645Z,57.6
2023-06-17T10:25:17.287Z,57.6
2023-06-17T10:30:20.680Z,57.6
2023-06-17T10:35:17.260Z,57.4
2023-06-17T10:40:17.302Z,57.4
2023-06-17T10:45:17.228Z,57.4
2023-06-17T10:50:20.493Z,57.1
2023-06-17T10:55:17.300Z,57.2
2023-06-17T11:00:20.597Z,57.2
2023-06-17T11:05:17.308Z,57.2
2023-06-17T11:10:17.337Z,57.2
2023-06-17T11:15:20.243Z,57.3
2023-06-17T11:20:17.253Z,57.3
2023-06-17T11:25:17.233Z,57.4
2023-06-17T11:30:20.542Z,57.6
2023-06-17T11:35:20.296Z,57.6
2023-06-17T11:40:20.612Z,57.7
2023-06-17T11:45:20.307Z,57.8
2023-06-17T11:50:20.553Z,57.9
2023-06-17T11:55:20.247Z,57.9
2023-06-17T12:00:17.358Z,58.2
2023-06-17T12:05:17.223Z,58.2
2023-06-17T12:10:20.478Z,58.2
2023-06-17T12:15:20.293Z,58.1
2023-06-17T12:20:17.356Z,58.4
2023-06-17T12:25:17.382Z,58.3
2023-06-17T12:30:20.325Z,58.3
2023-06-17T12:35:17.384Z,58.3
2023-06-17T12:40:20.273Z,58.3
2023-06-17T12:45:17.204Z,58.3
2023-06-17T12:50:20.438Z,58.3
2023-06-17T12:55:17.302Z,58.3
2023-06-17T13:00:17.287Z,58.7
2023-06-17T13:05:17.337Z,58.7
2023-06-17T13:10:20.289Z,58.7
2023-06-17T13:15:20.473Z,59.1
2023-06-17T13:20:20.471Z,59.2
2023-06-17T13:25:20.275Z,59.2
2023-06-17T13:30:17.317Z,59.2
2023-06-17T13:35:17.257Z,59.5
2023-06-17T13:40:20.537Z,59.5
2023-06-17T13:45:20.548Z,59.5
2023-06-17T13:50:20.720Z,59.6
2023-06-17T13:55:17.366Z,59.6
2023-06-17T14:00:17.339Z,59.6
2023-06-17T14:05:17.171Z,59.6
2023-06-17T14:10:20.712Z,59.6
2023-06-17T14:15:20.377Z,59.6
2023-06-17T14:20:20.623Z,59.6
2023-06-17T14:25:17.472Z,59.6
2023-06-17T14:30:17.392Z,59.6
2023-06-17T14:35:17.370Z,59.6
2023-06-17T14:40:20.718Z,59.7
2023-06-17T14:45:20.478Z,60.1
2023-06-17T14:50:20.540Z,60.1
2023-06-17T14:55:20.407Z,60.1
2023-06-17T15:00:20.795Z,60.1
2023-06-17T15:05:17.383Z,60.1
2023-06-17T15:10:17.599Z,60.0
2023-06-17T15:15:20.623Z,59.9
2023-06-17T15:20:21.060Z,59.8
2023-06-17T15:25:17.357Z,59.6
2023-06-17T15:30:17.389Z,59.4
2023-06-17T15:35:20.320Z,59.2
2023-06-17T15:40:18.561Z,59.1
2023-06-17T15:45:20.388Z,59.0
2023-06-17T15:50:17.566Z,58.9
2023-06-17T15:55:17.434Z,58.7
2023-06-17T16:00:17.321Z,58.5
2023-06-17T16:05:18.405Z,58.2
2023-06-17T16:10:15.402Z,58.3
2023-06-17T16:15:18.345Z,57.9
2023-06-17T16:20:15.398Z,57.8
2023-06-17T16:25:18.448Z,57.4
2023-06-17T16:30:18.420Z,57.4
2023-06-17T16:35:18.402Z,57.1
2023-06-17T16:40:18.482Z,57.0
2023-06-17T16:45:15.478Z,56.9
2023-06-17T16:50:18.436Z,56.8
2023-06-17T16:55:18.354Z,56.8
2023-06-17T17:00:18.382Z,56.5
2023-06-17T17:05:15.423Z,56.5
2023-06-17T17:10:18.471Z,56.1
2023-06-17T17:15:18.501Z,55.8
2023-06-17T17:20:15.488Z,55.4
2023-06-17T17:25:15.422Z,55.3
2023-06-17T17:30:18.566Z,54.4
2023-06-17T17:35:18.402Z,54.4
2023-06-17T17:40:18.450Z,54.1
2023-06-17T17:45:18.385Z,53.6
2023-06-17T17:50:15.445Z,53.2
2023-06-17T17:55:18.428Z,52.9
2023-06-17T18:00:18.513Z,52.5
2023-06-17T18:05:18.433Z,52.5
2023-06-17T18:10:18.477Z,52.0
2023-06-17T18:15:15.416Z,52.0
2023-06-17T18:20:18.468Z,52.0
2023-06-17T18:25:15.378Z,51.9
2023-06-17T18:30:18.442Z,51.8
2023-06-17T18:35:15.500Z,51.2
2023-06-17T18:40:18.442Z,51.1
2023-06-17T18:45:18.417Z,50.9
2023-06-17T18:50:18.440Z,50.5
2023-06-17T18:55:15.433Z,49.3
2023-06-17T19:00:18.649Z,48.3
2023-06-17T19:05:18.433Z,47.4
2023-06-17T19:10:15.451Z,46.5
2023-06-17T19:15:18.433Z,46.0
2023-06-17T19:20:18.540Z,45.5
2023-06-17T19:25:18.548Z,45.0
2023-06-17T19:30:15.454Z,45.0
2023-06-17T19:35:18.467Z,45.4
2023-06-17T19:40:18.649Z,45.0
2023-06-17T19:45:18.467Z,43.1
2023-06-17T19:50:18.484Z,45.1
2023-06-17T19:55:16.287Z,45.2
2023-06-17T20:00:18.497Z,47.1
2023-06-17T20:05:15.531Z,46.4
2023-06-17T20:10:15.467Z,46.5
2023-06-17T20:15:18.429Z,46.9
2023-06-17T20:20:18.548Z,47.3
2023-06-17T20:25:18.427Z,47.8
2023-06-17T20:30:18.585Z,47.7
2023-06-17T20:35:18.428Z,48.4
2023-06-17T20:40:18.561Z,47.9
2023-06-17T20:45:15.545Z,47.3
2023-06-17T20:50:15.494Z,48.1
2023-06-17T20:55:18.456Z,47.9
2023-06-17T21:00:15.529Z,47.8
2023-06-17T21:05:18.659Z,47.3
2023-06-17T21:10:18.565Z,47.2
2023-06-17T21:15:18.468Z,47.2
2023-06-17T21:20:18.532Z,46.8
2023-06-17T21:25:15.523Z,46.7
2023-06-17T21:30:18.504Z,47.1
2023-06-17T21:35:15.513Z,47.4
2023-06-17T21:40:15.506Z,47.3
2023-06-17T21:45:18.534Z,46.4
2023-06-17T21:50:18.625Z,46.0
2023-06-17T21:55:15.504Z,46.0
2023-06-17T22:00:18.781Z,46.3
2023-06-17T22:05:18.535Z,45.9
2023-06-17T22:10:18.538Z,44.7
2023-06-17T22:15:18.523Z,44.2
2023-06-17T22:20:18.514Z,43.0
2023-06-17T22:25:18.505Z,41.7
2023-06-17T22:30:18.535Z,40.6
2023-06-17T22:35:18.527Z,39.4
2023-06-17T22:40:18.502Z,38.3
2023-06-17T22:45:18.480Z,38.7
2023-06-17T22:50:18.518Z,38.0
2023-06-17T22:55:18.504Z,37.3
2023-06-17T23:00:18.557Z,36.5
2023-06-17T23:05:15.632Z,35.3
2023-06-17T23:10:18.552Z,34.6
2023-06-17T23:15:18.613Z,36.1
2023-06-17T23:20:18.546Z,35.7
2023-06-17T23:25:15.648Z,33.7
2023-06-17T23:30:15.618Z,32.5
2023-06-17T23:35:18.559Z,31.7
2023-06-17T23:40:18.701Z,31.0
2023-06-17T23:45:18.494Z,30.3
2023-06-17T23:50:18.497Z,29.5
2023-06-17T23:55:15.700Z,28.8
